sensor_id;sensor_type;location;lat;lon;timestamp;temperature;humidity
24207;DHT22;12351;52.284;9.160;2022-12-18T00:01:04;-2.50;99.90
24207;DHT22;12351;52.284;9.160;2022-12-18T00:03:56;-2.50;99.90
24207;DHT22;12351;52.284;9.160;2022-12-18T00:06:45;-2.50;99.90
24207;DHT22;12351;52.284;9.160;2022-12-18T00:09:33;-2.40;99.90
24207;DHT22;12351;52.284;9.160;2022-12-18T00:12:23;-2.50;99.90
24207;DHT22;12351;52.284;9.160;2022-12-18T00:15:13;-2.60;99.90
24207;DHT22;12351;52.284;9.160;2022-12-18T00:18:03;-2.60;99.90
24207;DHT22;12351;52.284;9.160;2022-12-18T00:20:53;-2.60;99.90
24207;DHT22;12351;52.284;9.160;2022-12-18T00:23:43;-2.50;99.90
24207;DHT22;12351;52.284;9.160;2022-12-18T00:26:34;-2.50;99.90
24207;DHT22;12351;52.284;9.160;2022-12-18T00:29:24;-2.40;99.90
24207;DHT22;12351;52.284;9.160;2022-12-18T00:32:14;-2.30;99.90
24207;DHT22;12351;52.284;9.160;2022-12-18T00:35:04;-2.30;99.90
24207;DHT22;12351;52.284;9.160;2022-12-18T00:37:54;-2.30;99.90
24207;DHT22;12351;52.284;9.160;2022-12-18T00:40:45;-2.30;99.90
24207;DHT22;12351;52.284;9.160;2022-12-18T00:43:37;-2.30;99.90
24207;DHT22;12351;52.284;9.160;2022-12-18T00:46:27;-2.40;99.90
24207;DHT22;12351;52.284;9.160;2022-12-18T00:49:19;-2.50;99.90
24207;DHT22;12351;52.284;9.160;2022-12-18T00:52:09;-2.50;99.90
24207;DHT22;12351;52.284;9.160;2022-12-18T00:55:01;-2.50;99.90
24207;DHT22;12351;52.284;9.160;2022-12-18T00:57:51;-2.50;99.90
24207;DHT22;12351;52.284;9.160;2022-12-18T01:00:42;-2.40;99.90
24207;DHT22;12351;52.284;9.160;2022-12-18T01:03:30;-2.40;99.90
24207;DHT22;12351;52.284;9.160;2022-12-18T01:06:21;-2.40;99.90
24207;DHT22;12351;52.284;9.160;2022-12-18T01:09:11;-2.50;99.90
24207;DHT22;12351;52.284;9.160;2022-12-18T01:12:04;-2.50;99.90
24207;DHT22;12351;52.284;9.160;2022-12-18T01:14:55;-2.50;99.90
24207;DHT22;12351;52.284;9.160;2022-12-18T01:17:44;-2.50;99.90
24207;DHT22;12351;52.284;9.160;2022-12-18T01:20:34;-2.50;99.90
24207;DHT22;12351;52.284;9.160;2022-12-18T01:26:15;-2.60;99.90
24207;DHT22;12351;52.284;9.160;2022-12-18T01:29:05;-2.60;99.90
24207;DHT22;12351;52.284;9.160;2022-12-18T01:31:56;-2.60;99.90
24207;DHT22;12351;52.284;9.160;2022-12-18T01:34:46;-2.60;99.90
24207;DHT22;12351;52.284;9.160;2022-12-18T01:37:36;-2.50;99.90
24207;DHT22;12351;52.284;9.160;2022-12-18T01:40:23;-2.60;99.90
24207;DHT22;12351;52.284;9.160;2022-12-18T01:43:14;-2.60;99.90
24207;DHT22;12351;52.284;9.160;2022-12-18T01:46:05;-2.70;99.90
24207;DHT22;12351;52.284;9.160;2022-12-18T01:48:57;-2.70;99.90
24207;DHT22;12351;52.284;9.160;2022-12-18T01:51:48;-2.70;99.90
24207;DHT22;12351;52.284;9.160;2022-12-18T01:54:38;-2.80;99.90
24207;DHT22;12351;52.284;9.160;2022-12-18T01:57:30;-2.80;99.90
24207;DHT22;12351;52.284;9.160;2022-12-18T02:00:20;-2.80;99.90
24207;DHT22;12351;52.284;9.160;2022-12-18T02:03:12;-2.80;99.90
24207;DHT22;12351;52.284;9.160;2022-12-18T02:06:07;-2.80;99.90
24207;DHT22;12351;52.284;9.160;2022-12-18T02:08:54;-2.80;99.90
24207;DHT22;12351;52.284;9.160;2022-12-18T02:11:44;-2.80;99.90
24207;DHT22;12351;52.284;9.160;2022-12-18T02:20:13;-2.90;99.90
24207;DHT22;12351;52.284;9.160;2022-12-18T02:28:45;-2.80;99.90
24207;DHT22;12351;52.284;9.160;2022-12-18T02:34:24;-2.90;99.90
24207;DHT22;12351;52.284;9.160;2022-12-18T02:37:14;-3.00;99.90
24207;DHT22;12351;52.284;9.160;2022-12-18T02:40:02;-3.00;99.90
24207;DHT22;12351;52.284;9.160;2022-12-18T02:42:54;-3.00;99.90
24207;DHT22;12351;52.284;9.160;2022-12-18T02:48:33;-3.00;99.90
24207;DHT22;12351;52.284;9.160;2022-12-18T02:51:25;-3.00;99.90
24207;DHT22;12351;52.284;9.160;2022-12-18T02:54:19;-3.00;99.90
24207;DHT22;12351;52.284;9.160;2022-12-18T02:57:11;-3.10;99.90
24207;DHT22;12351;52.284;9.160;2022-12-18T03:00:00;-3.00;99.90
24207;DHT22;12351;52.284;9.160;2022-12-18T03:08:18;-3.00;99.90
24207;DHT22;12351;52.284;9.160;2022-12-18T03:13:55;-3.00;99.90
24207;DHT22;12351;52.284;9.160;2022-12-18T03:16:45;-2.90;99.90
24207;DHT22;12351;52.284;9.160;2022-12-18T03:19:33;-2.90;99.90
24207;DHT22;12351;52.284;9.160;2022-12-18T03:22:22;-2.90;99.90
24207;DHT22;12351;52.284;9.160;2022-12-18T03:25:12;-2.90;99.90
24207;DHT22;12351;52.284;9.160;2022-12-18T03:28:01;-2.90;99.90
24207;DHT22;12351;52.284;9.160;2022-12-18T03:30:52;-2.90;99.90
24207;DHT22;12351;52.284;9.160;2022-12-18T03:33:42;-2.90;99.90
24207;DHT22;12351;52.284;9.160;2022-12-18T03:36:30;-2.90;99.90
24207;DHT22;12351;52.284;9.160;2022-12-18T03:39:16;-2.90;99.90
24207;DHT22;12351;52.284;9.160;2022-12-18T03:42:06;-2.90;99.90
24207;DHT22;12351;52.284;9.160;2022-12-18T03:44:56;-2.90;99.90
24207;DHT22;12351;52.284;9.160;2022-12-18T03:55:52;-2.90;99.90
24207;DHT22;12351;52.284;9.160;2022-12-18T03:58:40;-2.80;99.90
24207;DHT22;12351;52.284;9.160;2022-12-18T04:01:32;-2.80;99.90
24207;DHT22;12351;52.284;9.160;2022-12-18T04:04:19;-2.70;99.90
24207;DHT22;12351;52.284;9.160;2022-12-18T04:07:08;-2.70;99.90
24207;DHT22;12351;52.284;9.160;2022-12-18T04:09:56;-2.60;99.90
24207;DHT22;12351;52.284;9.160;2022-12-18T04:12:44;-2.60;99.90
24207;DHT22;12351;52.284;9.160;2022-12-18T04:15:33;-2.60;99.90
24207;DHT22;12351;52.284;9.160;2022-12-18T04:18:21;-2.60;99.90
24207;DHT22;12351;52.284;9.160;2022-12-18T04:21:09;-2.50;99.90
24207;DHT22;12351;52.284;9.160;2022-12-18T04:23:56;-2.50;99.90
24207;DHT22;12351;52.284;9.160;2022-12-18T04:26:43;-2.60;99.90
24207;DHT22;12351;52.284;9.160;2022-12-18T04:29:29;-2.60;99.90
24207;DHT22;12351;52.284;9.160;2022-12-18T04:32:16;-2.60;99.90
24207;DHT22;12351;52.284;9.160;2022-12-18T04:35:03;-2.60;99.90
24207;DHT22;12351;52.284;9.160;2022-12-18T04:37:52;-2.60;99.90
24207;DHT22;12351;52.284;9.160;2022-12-18T04:40:39;-2.70;99.90
24207;DHT22;12351;52.284;9.160;2022-12-18T04:43:26;-2.60;99.90
24207;DHT22;12351;52.284;9.160;2022-12-18T04:46:14;-2.60;99.90
24207;DHT22;12351;52.284;9.160;2022-12-18T04:49:01;-2.50;99.90
24207;DHT22;12351;52.284;9.160;2022-12-18T04:51:48;-2.60;99.90
24207;DHT22;12351;52.284;9.160;2022-12-18T04:54:34;-2.60;99.90
24207;DHT22;12351;52.284;9.160;2022-12-18T04:57:21;-2.60;99.90
24207;DHT22;12351;52.284;9.160;2022-12-18T05:00:08;-2.60;99.90
24207;DHT22;12351;52.284;9.160;2022-12-18T05:02:56;-2.60;99.90
24207;DHT22;12351;52.284;9.160;2022-12-18T05:05:42;-2.60;99.90
24207;DHT22;12351;52.284;9.160;2022-12-18T05:08:29;-2.60;99.90
24207;DHT22;12351;52.284;9.160;2022-12-18T05:11:17;-2.60;99.90
24207;DHT22;12351;52.284;9.160;2022-12-18T05:14:04;-2.60;99.90
24207;DHT22;12351;52.284;9.160;2022-12-18T05:16:50;-2.60;99.90
24207;DHT22;12351;52.284;9.160;2022-12-18T05:19:38;-2.60;99.90
24207;DHT22;12351;52.284;9.160;2022-12-18T05:22:25;-2.60;99.90
24207;DHT22;12351;52.284;9.160;2022-12-18T05:25:13;-2.60;99.90
24207;DHT22;12351;52.284;9.160;2022-12-18T05:28:00;-2.60;99.90
24207;DHT22;12351;52.284;9.160;2022-12-18T05:30:49;-2.60;99.90
24207;DHT22;12351;52.284;9.160;2022-12-18T05:33:36;-2.60;99.90
24207;DHT22;12351;52.284;9.160;2022-12-18T05:36:23;-2.60;99.90
24207;DHT22;12351;52.284;9.160;2022-12-18T05:39:10;-2.60;99.90
24207;DHT22;12351;52.284;9.160;2022-12-18T05:41:57;-2.60;99.90
24207;DHT22;12351;52.284;9.160;2022-12-18T05:44:44;-2.50;99.90
24207;DHT22;12351;52.284;9.160;2022-12-18T05:47:31;-2.60;99.90
24207;DHT22;12351;52.284;9.160;2022-12-18T05:50:18;-2.60;99.90
24207;DHT22;12351;52.284;9.160;2022-12-18T05:53:06;-2.60;99.90
24207;DHT22;12351;52.284;9.160;2022-12-18T05:55:54;-2.60;99.90
24207;DHT22;12351;52.284;9.160;2022-12-18T05:58:41;-2.60;99.90
24207;DHT22;12351;52.284;9.160;2022-12-18T06:01:28;-2.60;99.90
24207;DHT22;12351;52.284;9.160;2022-12-18T06:04:15;-2.60;99.90
24207;DHT22;12351;52.284;9.160;2022-12-18T06:07:03;-2.60;99.90
24207;DHT22;12351;52.284;9.160;2022-12-18T06:09:50;-2.50;99.90
24207;DHT22;12351;52.284;9.160;2022-12-18T06:12:37;-2.60;99.90
24207;DHT22;12351;52.284;9.160;2022-12-18T06:15:24;-2.60;99.90
24207;DHT22;12351;52.284;9.160;2022-12-18T06:18:10;-2.60;99.90
24207;DHT22;12351;52.284;9.160;2022-12-18T06:20:58;-2.60;99.90
24207;DHT22;12351;52.284;9.160;2022-12-18T06:23:44;-2.60;99.90
24207;DHT22;12351;52.284;9.160;2022-12-18T06:26:31;-2.70;99.90
24207;DHT22;12351;52.284;9.160;2022-12-18T06:29:17;-2.70;99.90
24207;DHT22;12351;52.284;9.160;2022-12-18T06:32:04;-2.60;99.90
24207;DHT22;12351;52.284;9.160;2022-12-18T06:34:51;-2.70;99.90
24207;DHT22;12351;52.284;9.160;2022-12-18T06:37:38;-2.70;99.90
24207;DHT22;12351;52.284;9.160;2022-12-18T06:40:25;-2.70;99.90
24207;DHT22;12351;52.284;9.160;2022-12-18T06:43:12;-2.70;99.90
24207;DHT22;12351;52.284;9.160;2022-12-18T06:46:00;-2.70;99.90
24207;DHT22;12351;52.284;9.160;2022-12-18T06:48:48;-2.70;99.90
24207;DHT22;12351;52.284;9.160;2022-12-18T06:51:35;-2.70;99.90
24207;DHT22;12351;52.284;9.160;2022-12-18T06:54:22;-2.70;99.90
24207;DHT22;12351;52.284;9.160;2022-12-18T06:57:08;-2.70;99.90
24207;DHT22;12351;52.284;9.160;2022-12-18T06:59:55;-2.60;99.90
24207;DHT22;12351;52.284;9.160;2022-12-18T07:02:42;-2.60;99.90
24207;DHT22;12351;52.284;9.160;2022-12-18T07:05:28;-2.60;99.90
24207;DHT22;12351;52.284;9.160;2022-12-18T07:08:15;-2.60;99.90
24207;DHT22;12351;52.284;9.160;2022-12-18T07:11:03;-2.60;99.90
24207;DHT22;12351;52.284;9.160;2022-12-18T07:13:50;-2.60;99.90
24207;DHT22;12351;52.284;9.160;2022-12-18T07:16:38;-2.60;99.90
24207;DHT22;12351;52.284;9.160;2022-12-18T07:19:26;-2.50;99.90
24207;DHT22;12351;52.284;9.160;2022-12-18T07:22:12;-2.50;99.90
24207;DHT22;12351;52.284;9.160;2022-12-18T07:24:59;-2.50;99.90
24207;DHT22;12351;52.284;9.160;2022-12-18T07:27:46;-2.60;99.90
24207;DHT22;12351;52.284;9.160;2022-12-18T07:30:32;-2.60;99.90
24207;DHT22;12351;52.284;9.160;2022-12-18T07:33:19;-2.60;99.90
24207;DHT22;12351;52.284;9.160;2022-12-18T07:36:07;-2.60;99.90
24207;DHT22;12351;52.284;9.160;2022-12-18T07:38:53;-2.60;99.90
24207;DHT22;12351;52.284;9.160;2022-12-18T07:41:40;-2.60;99.90
24207;DHT22;12351;52.284;9.160;2022-12-18T07:44:29;-2.60;99.90
24207;DHT22;12351;52.284;9.160;2022-12-18T07:47:20;-2.60;99.90
24207;DHT22;12351;52.284;9.160;2022-12-18T07:50:10;-2.50;99.90
24207;DHT22;12351;52.284;9.160;2022-12-18T07:53:02;-2.50;99.90
24207;DHT22;12351;52.284;9.160;2022-12-18T07:55:54;-2.50;99.90
24207;DHT22;12351;52.284;9.160;2022-12-18T07:58:41;-2.60;99.90
24207;DHT22;12351;52.284;9.160;2022-12-18T08:01:29;-2.50;99.90
24207;DHT22;12351;52.284;9.160;2022-12-18T08:04:18;-2.50;99.90
24207;DHT22;12351;52.284;9.160;2022-12-18T08:07:08;-2.50;99.90
24207;DHT22;12351;52.284;9.160;2022-12-18T08:09:57;-2.50;99.90
24207;DHT22;12351;52.284;9.160;2022-12-18T08:12:45;-2.50;99.90
24207;DHT22;12351;52.284;9.160;2022-12-18T08:15:37;-2.50;99.90
24207;DHT22;12351;52.284;9.160;2022-12-18T08:18:26;-2.50;99.90
24207;DHT22;12351;52.284;9.160;2022-12-18T08:21:17;-2.50;99.90
24207;DHT22;12351;52.284;9.160;2022-12-18T08:24:06;-2.50;99.90
24207;DHT22;12351;52.284;9.160;2022-12-18T08:26:58;-2.50;99.90
24207;DHT22;12351;52.284;9.160;2022-12-18T08:29:49;-2.50;99.90
24207;DHT22;12351;52.284;9.160;2022-12-18T08:32:40;-2.50;99.90
24207;DHT22;12351;52.284;9.160;2022-12-18T08:35:28;-2.40;99.90
24207;DHT22;12351;52.284;9.160;2022-12-18T08:38:19;-2.40;99.90
24207;DHT22;12351;52.284;9.160;2022-12-18T08:41:11;-2.30;99.90
24207;DHT22;12351;52.284;9.160;2022-12-18T08:44:02;-2.20;99.90
24207;DHT22;12351;52.284;9.160;2022-12-18T08:46:52;-2.30;99.90
24207;DHT22;12351;52.284;9.160;2022-12-18T08:49:43;-2.20;99.90
24207;DHT22;12351;52.284;9.160;2022-12-18T08:52:33;-2.20;99.90
24207;DHT22;12351;52.284;9.160;2022-12-18T08:55:21;-2.20;99.90
24207;DHT22;12351;52.284;9.160;2022-12-18T08:58:11;-2.20;99.90
24207;DHT22;12351;52.284;9.160;2022-12-18T09:01:03;-2.10;99.90
24207;DHT22;12351;52.284;9.160;2022-12-18T09:03:56;-2.10;99.90
24207;DHT22;12351;52.284;9.160;2022-12-18T09:06:46;-2.00;99.90
24207;DHT22;12351;52.284;9.160;2022-12-18T09:09:37;-2.00;99.90
24207;DHT22;12351;52.284;9.160;2022-12-18T09:12:27;-1.90;99.90
24207;DHT22;12351;52.284;9.160;2022-12-18T09:15:21;-1.80;99.90
24207;DHT22;12351;52.284;9.160;2022-12-18T09:18:09;-1.80;99.90
24207;DHT22;12351;52.284;9.160;2022-12-18T09:21:07;-1.80;99.90
24207;DHT22;12351;52.284;9.160;2022-12-18T09:23:54;-1.80;99.90
24207;DHT22;12351;52.284;9.160;2022-12-18T09:26:44;-1.70;99.90
24207;DHT22;12351;52.284;9.160;2022-12-18T09:29:32;-1.70;99.90
24207;DHT22;12351;52.284;9.160;2022-12-18T09:32:25;-1.70;99.90
24207;DHT22;12351;52.284;9.160;2022-12-18T09:35:16;-1.70;99.90
24207;DHT22;12351;52.284;9.160;2022-12-18T09:38:04;-1.60;99.90
24207;DHT22;12351;52.284;9.160;2022-12-18T09:46:30;-1.40;99.90
24207;DHT22;12351;52.284;9.160;2022-12-18T09:49:19;-1.40;99.90
24207;DHT22;12351;52.284;9.160;2022-12-18T09:57:49;-1.30;99.90
24207;DHT22;12351;52.284;9.160;2022-12-18T10:00:41;-1.20;99.90
24207;DHT22;12351;52.284;9.160;2022-12-18T10:03:27;-1.20;99.90
24207;DHT22;12351;52.284;9.160;2022-12-18T10:06:20;-1.20;99.90
24207;DHT22;12351;52.284;9.160;2022-12-18T10:09:09;-1.20;99.90
24207;DHT22;12351;52.284;9.160;2022-12-18T10:14:51;-1.10;99.90
24207;DHT22;12351;52.284;9.160;2022-12-18T10:23:23;-1.00;99.90
24207;DHT22;12351;52.284;9.160;2022-12-18T10:26:11;-1.00;99.90
24207;DHT22;12351;52.284;9.160;2022-12-18T10:29:03;-0.90;99.90
24207;DHT22;12351;52.284;9.160;2022-12-18T10:31:52;-0.90;99.90
24207;DHT22;12351;52.284;9.160;2022-12-18T10:34:44;-0.80;99.90
24207;DHT22;12351;52.284;9.160;2022-12-18T10:37:34;-0.80;99.90
24207;DHT22;12351;52.284;9.160;2022-12-18T10:40:24;-0.80;99.90
24207;DHT22;12351;52.284;9.160;2022-12-18T10:43:12;-0.70;99.90
24207;DHT22;12351;52.284;9.160;2022-12-18T10:48:53;-0.60;99.90
24207;DHT22;12351;52.284;9.160;2022-12-18T10:51:46;-0.60;99.90
24207;DHT22;12351;52.284;9.160;2022-12-18T10:54:33;-0.50;99.90
24207;DHT22;12351;52.284;9.160;2022-12-18T11:00:20;-0.60;99.90
24207;DHT22;12351;52.284;9.160;2022-12-18T11:03:01;-0.60;99.90
24207;DHT22;12351;52.284;9.160;2022-12-18T11:06:00;-0.60;99.90
24207;DHT22;12351;52.284;9.160;2022-12-18T11:08:45;-0.50;99.90
24207;DHT22;12351;52.284;9.160;2022-12-18T11:11:33;-0.50;99.90
24207;DHT22;12351;52.284;9.160;2022-12-18T11:14:26;-0.50;99.90
24207;DHT22;12351;52.284;9.160;2022-12-18T11:17:18;-0.50;99.90
24207;DHT22;12351;52.284;9.160;2022-12-18T11:20:09;-0.50;99.90
24207;DHT22;12351;52.284;9.160;2022-12-18T11:22:58;-0.50;99.90
24207;DHT22;12351;52.284;9.160;2022-12-18T11:31:28;-0.50;99.90
24207;DHT22;12351;52.284;9.160;2022-12-18T11:34:26;-0.50;99.90
24207;DHT22;12351;52.284;9.160;2022-12-18T11:37:13;-0.60;99.90
24207;DHT22;12351;52.284;9.160;2022-12-18T11:40:07;-0.60;99.90
24207;DHT22;12351;52.284;9.160;2022-12-18T11:42:59;-0.60;99.90
24207;DHT22;12351;52.284;9.160;2022-12-18T11:45:49;-0.50;99.90
24207;DHT22;12351;52.284;9.160;2022-12-18T11:48:37;-0.50;99.90
24207;DHT22;12351;52.284;9.160;2022-12-18T11:51:31;-0.50;99.90
24207;DHT22;12351;52.284;9.160;2022-12-18T11:54:18;-0.40;99.90
24207;DHT22;12351;52.284;9.160;2022-12-18T12:23:00;-0.30;99.90
24207;DHT22;12351;52.284;9.160;2022-12-18T12:34:22;-0.20;99.90
24207;DHT22;12351;52.284;9.160;2022-12-18T12:40:02;-0.10;99.90
24207;DHT22;12351;52.284;9.160;2022-12-18T12:42:54;-0.10;99.90
24207;DHT22;12351;52.284;9.160;2022-12-18T12:45:44;-0.10;99.90
24207;DHT22;12351;52.284;9.160;2022-12-18T13:05:23;0.10;99.90
24207;DHT22;12351;52.284;9.160;2022-12-18T13:08:22;0.00;99.90
24207;DHT22;12351;52.284;9.160;2022-12-18T13:11:02;0.00;99.90
24207;DHT22;12351;52.284;9.160;2022-12-18T13:13:54;0.00;99.90
24207;DHT22;12351;52.284;9.160;2022-12-18T13:16:45;0.00;99.90
24207;DHT22;12351;52.284;9.160;2022-12-18T13:19:34;-0.10;99.90
24207;DHT22;12351;52.284;9.160;2022-12-18T13:22:29;-0.10;99.90
24207;DHT22;12351;52.284;9.160;2022-12-18T13:28:10;-0.20;99.90
24207;DHT22;12351;52.284;9.160;2022-12-18T13:30:58;-0.10;99.90
24207;DHT22;12351;52.284;9.160;2022-12-18T13:33:48;-0.10;99.90
24207;DHT22;12351;52.284;9.160;2022-12-18T13:36:38;-0.10;99.90
24207;DHT22;12351;52.284;9.160;2022-12-18T13:39:31;-0.10;99.90
24207;DHT22;12351;52.284;9.160;2022-12-18T13:45:34;-0.10;99.90
24207;DHT22;12351;52.284;9.160;2022-12-18T13:47:58;-0.10;99.90
24207;DHT22;12351;52.284;9.160;2022-12-18T13:53:42;-0.10;99.90
24207;DHT22;12351;52.284;9.160;2022-12-18T13:56:31;-0.10;99.90
24207;DHT22;12351;52.284;9.160;2022-12-18T14:02:13;0.00;99.90
24207;DHT22;12351;52.284;9.160;2022-12-18T14:04:59;0.10;99.90
24207;DHT22;12351;52.284;9.160;2022-12-18T14:07:49;0.10;99.90
24207;DHT22;12351;52.284;9.160;2022-12-18T14:10:42;0.20;99.90
24207;DHT22;12351;52.284;9.160;2022-12-18T14:13:33;0.20;99.90
24207;DHT22;12351;52.284;9.160;2022-12-18T14:16:21;0.30;99.90
24207;DHT22;12351;52.284;9.160;2022-12-18T14:19:14;0.30;99.90
24207;DHT22;12351;52.284;9.160;2022-12-18T14:22:03;0.30;99.90
24207;DHT22;12351;52.284;9.160;2022-12-18T14:27:47;0.20;99.90
24207;DHT22;12351;52.284;9.160;2022-12-18T14:30:38;0.20;99.90
24207;DHT22;12351;52.284;9.160;2022-12-18T14:33:27;0.30;99.90
24207;DHT22;12351;52.284;9.160;2022-12-18T14:36:20;0.30;99.90
24207;DHT22;12351;52.284;9.160;2022-12-18T14:39:13;0.30;99.90
24207;DHT22;12351;52.284;9.160;2022-12-18T14:41:59;0.20;99.90
24207;DHT22;12351;52.284;9.160;2022-12-18T14:44:48;0.20;99.90
24207;DHT22;12351;52.284;9.160;2022-12-18T14:47:38;0.10;99.90
24207;DHT22;12351;52.284;9.160;2022-12-18T14:50:27;0.20;99.90
24207;DHT22;12351;52.284;9.160;2022-12-18T14:53:18;0.10;99.90
24207;DHT22;12351;52.284;9.160;2022-12-18T14:56:17;0.00;99.90
24207;DHT22;12351;52.284;9.160;2022-12-18T14:59:00;0.00;99.90
24207;DHT22;12351;52.284;9.160;2022-12-18T15:04:39;0.10;99.90
24207;DHT22;12351;52.284;9.160;2022-12-18T15:13:20;0.20;99.90
24207;DHT22;12351;52.284;9.160;2022-12-18T15:16:02;0.20;99.90
24207;DHT22;12351;52.284;9.160;2022-12-18T15:18:53;0.20;99.90
24207;DHT22;12351;52.284;9.160;2022-12-18T15:21:45;0.30;99.90
24207;DHT22;12351;52.284;9.160;2022-12-18T15:24:33;0.50;99.90
24207;DHT22;12351;52.284;9.160;2022-12-18T15:30:16;0.30;99.90
24207;DHT22;12351;52.284;9.160;2022-12-18T15:38:41;0.30;99.90
24207;DHT22;12351;52.284;9.160;2022-12-18T15:41:33;0.30;99.90
24207;DHT22;12351;52.284;9.160;2022-12-18T15:44:22;0.30;99.90
24207;DHT22;12351;52.284;9.160;2022-12-18T15:47:13;0.30;99.90
24207;DHT22;12351;52.284;9.160;2022-12-18T15:49:59;0.30;99.90
24207;DHT22;12351;52.284;9.160;2022-12-18T15:52:51;0.30;99.90
24207;DHT22;12351;52.284;9.160;2022-12-18T15:55:38;0.40;99.90
24207;DHT22;12351;52.284;9.160;2022-12-18T15:58:26;0.40;99.90
24207;DHT22;12351;52.284;9.160;2022-12-18T16:01:13;0.30;99.90
24207;DHT22;12351;52.284;9.160;2022-12-18T16:04:00;0.30;99.90
24207;DHT22;12351;52.284;9.160;2022-12-18T16:06:48;0.30;99.90
24207;DHT22;12351;52.284;9.160;2022-12-18T16:09:36;0.30;99.90
24207;DHT22;12351;52.284;9.160;2022-12-18T16:12:24;0.30;99.90
24207;DHT22;12351;52.284;9.160;2022-12-18T16:15:13;0.30;99.90
24207;DHT22;12351;52.284;9.160;2022-12-18T16:18:01;0.30;99.90
24207;DHT22;12351;52.284;9.160;2022-12-18T16:20:47;0.30;99.90
24207;DHT22;12351;52.284;9.160;2022-12-18T16:23:34;0.20;99.90
24207;DHT22;12351;52.284;9.160;2022-12-18T16:26:20;0.20;99.90
24207;DHT22;12351;52.284;9.160;2022-12-18T16:29:07;0.20;99.90
24207;DHT22;12351;52.284;9.160;2022-12-18T16:31:55;0.20;99.90
24207;DHT22;12351;52.284;9.160;2022-12-18T16:34:42;0.10;99.90
24207;DHT22;12351;52.284;9.160;2022-12-18T16:37:29;0.10;99.90
24207;DHT22;12351;52.284;9.160;2022-12-18T16:40:16;0.20;99.90
24207;DHT22;12351;52.284;9.160;2022-12-18T16:43:03;0.10;99.90
24207;DHT22;12351;52.284;9.160;2022-12-18T16:45:49;0.10;99.90
24207;DHT22;12351;52.284;9.160;2022-12-18T16:48:36;0.10;99.90
24207;DHT22;12351;52.284;9.160;2022-12-18T16:51:22;0.10;99.90
24207;DHT22;12351;52.284;9.160;2022-12-18T16:54:09;0.10;99.90
24207;DHT22;12351;52.284;9.160;2022-12-18T16:56:56;0.20;99.90
24207;DHT22;12351;52.284;9.160;2022-12-18T16:59:43;0.20;99.90
24207;DHT22;12351;52.284;9.160;2022-12-18T17:02:30;0.20;99.90
24207;DHT22;12351;52.284;9.160;2022-12-18T17:05:16;0.20;99.90
24207;DHT22;12351;52.284;9.160;2022-12-18T17:08:03;0.30;99.90
24207;DHT22;12351;52.284;9.160;2022-12-18T17:10:50;0.30;99.90
24207;DHT22;12351;52.284;9.160;2022-12-18T17:13:36;0.20;99.90
24207;DHT22;12351;52.284;9.160;2022-12-18T17:16:24;0.20;99.90
24207;DHT22;12351;52.284;9.160;2022-12-18T17:19:11;0.30;99.90
24207;DHT22;12351;52.284;9.160;2022-12-18T17:21:58;0.30;99.90
24207;DHT22;12351;52.284;9.160;2022-12-18T17:24:45;0.20;99.90
24207;DHT22;12351;52.284;9.160;2022-12-18T17:27:32;0.20;99.90
24207;DHT22;12351;52.284;9.160;2022-12-18T17:30:18;0.30;99.90
24207;DHT22;12351;52.284;9.160;2022-12-18T17:33:05;0.30;99.90
24207;DHT22;12351;52.284;9.160;2022-12-18T17:35:51;0.30;99.90
24207;DHT22;12351;52.284;9.160;2022-12-18T17:41:27;0.30;99.90
24207;DHT22;12351;52.284;9.160;2022-12-18T17:44:14;0.30;99.90
24207;DHT22;12351;52.284;9.160;2022-12-18T17:47:01;0.40;99.90
24207;DHT22;12351;52.284;9.160;2022-12-18T17:49:48;0.30;99.90
24207;DHT22;12351;52.284;9.160;2022-12-18T17:52:37;0.30;99.90
24207;DHT22;12351;52.284;9.160;2022-12-18T17:55:24;0.30;99.90
24207;DHT22;12351;52.284;9.160;2022-12-18T17:58:12;0.20;99.90
24207;DHT22;12351;52.284;9.160;2022-12-18T18:01:00;0.30;99.90
24207;DHT22;12351;52.284;9.160;2022-12-18T18:03:50;0.30;99.90
24207;DHT22;12351;52.284;9.160;2022-12-18T18:06:37;0.20;99.90
24207;DHT22;12351;52.284;9.160;2022-12-18T18:09:23;0.20;99.90
24207;DHT22;12351;52.284;9.160;2022-12-18T18:12:12;0.20;99.90
24207;DHT22;12351;52.284;9.160;2022-12-18T18:15:02;0.20;99.90
24207;DHT22;12351;52.284;9.160;2022-12-18T18:17:48;0.30;99.90
24207;DHT22;12351;52.284;9.160;2022-12-18T18:20:39;0.40;99.90
24207;DHT22;12351;52.284;9.160;2022-12-18T18:23:27;0.40;99.90
24207;DHT22;12351;52.284;9.160;2022-12-18T18:26:15;0.40;99.90
24207;DHT22;12351;52.284;9.160;2022-12-18T18:29:04;0.50;99.90
24207;DHT22;12351;52.284;9.160;2022-12-18T18:31:51;0.50;99.90
24207;DHT22;12351;52.284;9.160;2022-12-18T18:34:40;0.40;99.90
24207;DHT22;12351;52.284;9.160;2022-12-18T18:37:27;0.40;99.90
24207;DHT22;12351;52.284;9.160;2022-12-18T18:40:15;0.40;99.90
24207;DHT22;12351;52.284;9.160;2022-12-18T18:43:02;0.40;99.90
24207;DHT22;12351;52.284;9.160;2022-12-18T18:48:41;0.30;99.90
24207;DHT22;12351;52.284;9.160;2022-12-18T18:51:30;0.30;99.90
24207;DHT22;12351;52.284;9.160;2022-12-18T18:54:16;0.30;99.90
24207;DHT22;12351;52.284;9.160;2022-12-18T18:57:03;0.30;99.90
24207;DHT22;12351;52.284;9.160;2022-12-18T18:59:51;0.30;99.90
24207;DHT22;12351;52.284;9.160;2022-12-18T19:02:43;0.20;99.90
24207;DHT22;12351;52.284;9.160;2022-12-18T19:05:32;0.20;99.90
24207;DHT22;12351;52.284;9.160;2022-12-18T19:08:22;0.30;99.90
24207;DHT22;12351;52.284;9.160;2022-12-18T19:11:12;0.30;99.90
24207;DHT22;12351;52.284;9.160;2022-12-18T19:14:02;0.20;99.90
24207;DHT22;12351;52.284;9.160;2022-12-18T19:16:47;0.20;99.90
24207;DHT22;12351;52.284;9.160;2022-12-18T19:19:37;0.30;99.90
24207;DHT22;12351;52.284;9.160;2022-12-18T19:22:25;0.30;99.90
24207;DHT22;12351;52.284;9.160;2022-12-18T19:25:15;0.30;99.90
24207;DHT22;12351;52.284;9.160;2022-12-18T19:28:02;0.30;99.90
24207;DHT22;12351;52.284;9.160;2022-12-18T19:30:51;0.30;99.90
24207;DHT22;12351;52.284;9.160;2022-12-18T19:33:41;0.20;99.90
24207;DHT22;12351;52.284;9.160;2022-12-18T19:36:29;0.20;99.90
24207;DHT22;12351;52.284;9.160;2022-12-18T19:39:19;0.20;99.90
24207;DHT22;12351;52.284;9.160;2022-12-18T19:42:07;0.20;99.90
24207;DHT22;12351;52.284;9.160;2022-12-18T19:44:54;0.20;99.90
24207;DHT22;12351;52.284;9.160;2022-12-18T19:47:42;0.20;99.90
24207;DHT22;12351;52.284;9.160;2022-12-18T19:50:38;0.20;99.90
24207;DHT22;12351;52.284;9.160;2022-12-18T19:53:26;0.20;99.90
24207;DHT22;12351;52.284;9.160;2022-12-18T19:56:18;0.10;99.90
24207;DHT22;12351;52.284;9.160;2022-12-18T19:59:09;0.10;99.90
24207;DHT22;12351;52.284;9.160;2022-12-18T20:01:56;0.20;99.90
24207;DHT22;12351;52.284;9.160;2022-12-18T20:04:45;0.10;99.90
24207;DHT22;12351;52.284;9.160;2022-12-18T20:07:35;0.10;99.90
24207;DHT22;12351;52.284;9.160;2022-12-18T20:10:21;0.10;99.90
24207;DHT22;12351;52.284;9.160;2022-12-18T20:13:08;0.10;99.90
24207;DHT22;12351;52.284;9.160;2022-12-18T20:15:57;0.00;99.90
24207;DHT22;12351;52.284;9.160;2022-12-18T20:18:44;0.00;99.90
24207;DHT22;12351;52.284;9.160;2022-12-18T20:21:31;0.00;99.90
24207;DHT22;12351;52.284;9.160;2022-12-18T20:24:20;0.00;99.90
24207;DHT22;12351;52.284;9.160;2022-12-18T20:27:08;0.10;99.90
24207;DHT22;12351;52.284;9.160;2022-12-18T20:29:55;0.00;99.90
24207;DHT22;12351;52.284;9.160;2022-12-18T20:32:42;0.10;99.90